sensor_id;sensor_type;location;lat;lon;timestamp;P1;durP1;ratioP1;P2;durP2;ratioP2
789;SDS011;378;48.844;9.156;2023-02-28T00:01:05;4.47;;;2.33;;
789;SDS011;378;48.844;9.156;2023-02-28T00:03:33;4.17;;;2.07;;
789;SDS011;378;48.844;9.156;2023-02-28T00:06:01;4.20;;;2.23;;
789;SDS011;378;48.844;9.156;2023-02-28T00:08:28;4.73;;;2.50;;
789;SDS011;378;48.844;9.156;2023-02-28T00:10:55;6.20;;;2.78;;
789;SDS011;378;48.844;9.156;2023-02-28T00:13:22;3.57;;;2.20;;
789;SDS011;378;48.844;9.156;2023-02-28T00:15:57;3.33;;;2.20;;
789;SDS011;378;48.844;9.156;2023-02-28T00:18:26;6.07;;;2.20;;
789;SDS011;378;48.844;9.156;2023-02-28T00:20:54;6.10;;;2.47;;
789;SDS011;378;48.844;9.156;2023-02-28T00:23:21;4.47;;;2.60;;
789;SDS011;378;48.844;9.156;2023-02-28T00:25:48;4.30;;;2.55;;
789;SDS011;378;48.844;9.156;2023-02-28T00:28:14;3.77;;;2.57;;
789;SDS011;378;48.844;9.156;2023-02-28T00:30:41;6.30;;;2.43;;
789;SDS011;378;48.844;9.156;2023-02-28T00:33:08;6.23;;;2.60;;
789;SDS011;378;48.844;9.156;2023-02-28T00:35:35;2.80;;;2.23;;
789;SDS011;378;48.844;9.156;2023-02-28T00:38:03;4.50;;;2.53;;
789;SDS011;378;48.844;9.156;2023-02-28T00:40:30;4.07;;;3.00;;
789;SDS011;378;48.844;9.156;2023-02-28T00:42:57;5.07;;;2.87;;
789;SDS011;378;48.844;9.156;2023-02-28T00:45:24;4.33;;;2.47;;
789;SDS011;378;48.844;9.156;2023-02-28T00:47:51;6.23;;;2.60;;
789;SDS011;378;48.844;9.156;2023-02-28T00:50:18;4.77;;;2.77;;
789;SDS011;378;48.844;9.156;2023-02-28T00:52:46;6.87;;;2.80;;
789;SDS011;378;48.844;9.156;2023-02-28T00:55:14;7.47;;;2.93;;
789;SDS011;378;48.844;9.156;2023-02-28T00:57:41;4.43;;;2.80;;
789;SDS011;378;48.844;9.156;2023-02-28T01:00:09;4.43;;;2.60;;
789;SDS011;378;48.844;9.156;2023-02-28T01:02:36;6.70;;;2.83;;
789;SDS011;378;48.844;9.156;2023-02-28T01:05:03;3.57;;;2.47;;
789;SDS011;378;48.844;9.156;2023-02-28T01:07:31;5.13;;;3.00;;
789;SDS011;378;48.844;9.156;2023-02-28T01:09:58;9.40;;;3.00;;
789;SDS011;378;48.844;9.156;2023-02-28T01:12:26;7.00;;;3.03;;
789;SDS011;378;48.844;9.156;2023-02-28T01:14:52;5.20;;;2.80;;
789;SDS011;378;48.844;9.156;2023-02-28T01:17:19;3.83;;;2.73;;
789;SDS011;378;48.844;9.156;2023-02-28T01:19:46;10.00;;;3.17;;
789;SDS011;378;48.844;9.156;2023-02-28T01:22:13;4.73;;;2.83;;
789;SDS011;378;48.844;9.156;2023-02-28T01:24:40;11.03;;;3.27;;
789;SDS011;378;48.844;9.156;2023-02-28T01:27:07;6.75;;;3.35;;
789;SDS011;378;48.844;9.156;2023-02-28T01:29:35;6.23;;;3.60;;
789;SDS011;378;48.844;9.156;2023-02-28T01:32:02;6.03;;;3.03;;
789;SDS011;378;48.844;9.156;2023-02-28T01:34:29;5.57;;;3.33;;
789;SDS011;378;48.844;9.156;2023-02-28T01:36:56;10.00;;;3.20;;
789;SDS011;378;48.844;9.156;2023-02-28T01:39:23;8.20;;;3.53;;
789;SDS011;378;48.844;9.156;2023-02-28T01:41:50;7.43;;;2.93;;
789;SDS011;378;48.844;9.156;2023-02-28T01:47:38;5.23;;;3.13;;
789;SDS011;378;48.844;9.156;2023-02-28T01:50:09;6.23;;;3.20;;
789;SDS011;378;48.844;9.156;2023-02-28T01:52:40;6.10;;;3.30;;
789;SDS011;378;48.844;9.156;2023-02-28T01:55:09;8.17;;;3.50;;
789;SDS011;378;48.844;9.156;2023-02-28T01:57:38;5.27;;;3.33;;
789;SDS011;378;48.844;9.156;2023-02-28T02:00:09;6.37;;;2.90;;
789;SDS011;378;48.844;9.156;2023-02-28T02:02:40;5.90;;;3.40;;
789;SDS011;378;48.844;9.156;2023-02-28T02:05:10;7.83;;;3.80;;
789;SDS011;378;48.844;9.156;2023-02-28T02:07:40;4.97;;;3.63;;
789;SDS011;378;48.844;9.156;2023-02-28T02:10:11;6.73;;;3.43;;
789;SDS011;378;48.844;9.156;2023-02-28T02:15:40;5.17;;;3.40;;
789;SDS011;378;48.844;9.156;2023-02-28T02:18:13;5.47;;;3.13;;
789;SDS011;378;48.844;9.156;2023-02-28T02:23:58;7.20;;;3.33;;
789;SDS011;378;48.844;9.156;2023-02-28T02:26:51;7.40;;;3.43;;
789;SDS011;378;48.844;9.156;2023-02-28T02:29:36;5.87;;;3.47;;
789;SDS011;378;48.844;9.156;2023-02-28T02:32:37;3.70;;;2.80;;
789;SDS011;378;48.844;9.156;2023-02-28T02:35:22;5.47;;;3.20;;
789;SDS011;378;48.844;9.156;2023-02-28T02:37:56;4.20;;;2.90;;
789;SDS011;378;48.844;9.156;2023-02-28T02:40:27;6.30;;;3.40;;
789;SDS011;378;48.844;9.156;2023-02-28T02:43:00;4.83;;;3.37;;
789;SDS011;378;48.844;9.156;2023-02-28T02:45:31;6.07;;;3.27;;
789;SDS011;378;48.844;9.156;2023-02-28T02:48:02;5.33;;;3.10;;
789;SDS011;378;48.844;9.156;2023-02-28T02:50:33;5.47;;;3.50;;
789;SDS011;378;48.844;9.156;2023-02-28T02:53:04;5.27;;;3.23;;
789;SDS011;378;48.844;9.156;2023-02-28T02:55:34;5.47;;;3.65;;
789;SDS011;378;48.844;9.156;2023-02-28T02:58:07;7.17;;;3.60;;
789;SDS011;378;48.844;9.156;2023-02-28T03:00:37;5.10;;;3.40;;
789;SDS011;378;48.844;9.156;2023-02-28T03:03:07;9.87;;;3.40;;
789;SDS011;378;48.844;9.156;2023-02-28T03:05:39;7.57;;;3.70;;
789;SDS011;378;48.844;9.156;2023-02-28T03:08:11;7.20;;;4.00;;
789;SDS011;378;48.844;9.156;2023-02-28T03:16:13;9.97;;;3.63;;
789;SDS011;378;48.844;9.156;2023-02-28T03:18:50;7.13;;;3.83;;
789;SDS011;378;48.844;9.156;2023-02-28T03:21:25;6.07;;;3.63;;
789;SDS011;378;48.844;9.156;2023-02-28T03:24:02;6.60;;;4.10;;
789;SDS011;378;48.844;9.156;2023-02-28T03:26:31;9.33;;;3.73;;
789;SDS011;378;48.844;9.156;2023-02-28T03:29:02;6.27;;;4.10;;
789;SDS011;378;48.844;9.156;2023-02-28T03:31:38;8.00;;;3.90;;
789;SDS011;378;48.844;9.156;2023-02-28T03:34:08;6.70;;;3.43;;
789;SDS011;378;48.844;9.156;2023-02-28T03:36:41;6.13;;;3.90;;
789;SDS011;378;48.844;9.156;2023-02-28T03:39:14;6.10;;;3.77;;
789;SDS011;378;48.844;9.156;2023-02-28T03:41:44;9.13;;;3.80;;
789;SDS011;378;48.844;9.156;2023-02-28T03:44:15;10.97;;;4.30;;
789;SDS011;378;48.844;9.156;2023-02-28T03:46:47;6.63;;;3.70;;
789;SDS011;378;48.844;9.156;2023-02-28T03:49:18;7.03;;;3.60;;
789;SDS011;378;48.844;9.156;2023-02-28T03:51:50;8.37;;;4.03;;
789;SDS011;378;48.844;9.156;2023-02-28T03:54:18;9.53;;;4.37;;
789;SDS011;378;48.844;9.156;2023-02-28T03:56:48;6.00;;;3.80;;
789;SDS011;378;48.844;9.156;2023-02-28T03:59:21;9.40;;;3.60;;
789;SDS011;378;48.844;9.156;2023-02-28T04:01:52;8.37;;;4.00;;
789;SDS011;378;48.844;9.156;2023-02-28T04:04:20;8.60;;;3.67;;
789;SDS011;378;48.844;9.156;2023-02-28T04:06:50;6.38;;;4.10;;
789;SDS011;378;48.844;9.156;2023-02-28T04:09:26;10.57;;;4.67;;
789;SDS011;378;48.844;9.156;2023-02-28T04:11:53;6.53;;;4.20;;
789;SDS011;378;48.844;9.156;2023-02-28T04:14:21;8.23;;;3.93;;
789;SDS011;378;48.844;9.156;2023-02-28T04:16:48;5.00;;;3.73;;
789;SDS011;378;48.844;9.156;2023-02-28T04:19:17;11.43;;;4.20;;
789;SDS011;378;48.844;9.156;2023-02-28T04:21:44;9.93;;;4.27;;
789;SDS011;378;48.844;9.156;2023-02-28T04:24:14;9.05;;;4.30;;
789;SDS011;378;48.844;9.156;2023-02-28T04:26:43;8.47;;;4.17;;
789;SDS011;378;48.844;9.156;2023-02-28T04:29:12;6.97;;;3.60;;
789;SDS011;378;48.844;9.156;2023-02-28T04:31:40;11.60;;;4.20;;
789;SDS011;378;48.844;9.156;2023-02-28T04:34:07;8.30;;;4.37;;
789;SDS011;378;48.844;9.156;2023-02-28T04:36:34;10.03;;;3.97;;
789;SDS011;378;48.844;9.156;2023-02-28T04:39:01;7.57;;;3.90;;
789;SDS011;378;48.844;9.156;2023-02-28T04:41:30;6.07;;;3.87;;
789;SDS011;378;48.844;9.156;2023-02-28T04:43:57;8.00;;;3.97;;
789;SDS011;378;48.844;9.156;2023-02-28T04:46:24;9.20;;;4.13;;
789;SDS011;378;48.844;9.156;2023-02-28T04:48:50;6.70;;;3.93;;
789;SDS011;378;48.844;9.156;2023-02-28T04:51:18;10.00;;;3.77;;
789;SDS011;378;48.844;9.156;2023-02-28T04:53:46;8.47;;;4.07;;
789;SDS011;378;48.844;9.156;2023-02-28T04:56:14;11.13;;;5.47;;
789;SDS011;378;48.844;9.156;2023-02-28T04:58:44;5.30;;;4.00;;
789;SDS011;378;48.844;9.156;2023-02-28T05:01:16;6.57;;;4.47;;
789;SDS011;378;48.844;9.156;2023-02-28T05:03:45;10.83;;;4.53;;
789;SDS011;378;48.844;9.156;2023-02-28T05:06:12;8.30;;;4.70;;
789;SDS011;378;48.844;9.156;2023-02-28T05:08:40;8.52;;;5.20;;
789;SDS011;378;48.844;9.156;2023-02-28T05:11:15;7.80;;;4.20;;
789;SDS011;378;48.844;9.156;2023-02-28T05:13:45;8.13;;;4.47;;
789;SDS011;378;48.844;9.156;2023-02-28T05:16:12;9.13;;;4.73;;
789;SDS011;378;48.844;9.156;2023-02-28T05:18:40;9.83;;;4.97;;
789;SDS011;378;48.844;9.156;2023-02-28T05:21:12;7.10;;;4.37;;
789;SDS011;378;48.844;9.156;2023-02-28T05:23:51;7.27;;;4.70;;
789;SDS011;378;48.844;9.156;2023-02-28T05:26:18;9.50;;;4.87;;
789;SDS011;378;48.844;9.156;2023-02-28T05:28:46;10.47;;;4.83;;
789;SDS011;378;48.844;9.156;2023-02-28T05:31:13;7.47;;;3.97;;
789;SDS011;378;48.844;9.156;2023-02-28T05:33:40;9.33;;;5.00;;
789;SDS011;378;48.844;9.156;2023-02-28T05:36:07;7.97;;;4.57;;
789;SDS011;378;48.844;9.156;2023-02-28T05:38:34;7.80;;;4.20;;
789;SDS011;378;48.844;9.156;2023-02-28T05:41:04;13.07;;;5.10;;
789;SDS011;378;48.844;9.156;2023-02-28T05:43:32;10.10;;;5.27;;
789;SDS011;378;48.844;9.156;2023-02-28T05:46:03;7.37;;;4.40;;
789;SDS011;378;48.844;9.156;2023-02-28T05:48:30;8.20;;;4.97;;
789;SDS011;378;48.844;9.156;2023-02-28T05:50:57;9.40;;;4.43;;
789;SDS011;378;48.844;9.156;2023-02-28T05:53:24;8.07;;;4.57;;
789;SDS011;378;48.844;9.156;2023-02-28T05:55:52;10.30;;;4.73;;
789;SDS011;378;48.844;9.156;2023-02-28T05:58:19;10.43;;;5.75;;
789;SDS011;378;48.844;9.156;2023-02-28T06:00:45;11.00;;;4.80;;
789;SDS011;378;48.844;9.156;2023-02-28T06:03:14;10.40;;;5.07;;
789;SDS011;378;48.844;9.156;2023-02-28T06:05:41;11.77;;;5.03;;
789;SDS011;378;48.844;9.156;2023-02-28T06:08:08;8.33;;;4.40;;
789;SDS011;378;48.844;9.156;2023-02-28T06:10:34;16.13;;;5.00;;
789;SDS011;378;48.844;9.156;2023-02-28T06:13:01;10.63;;;5.63;;
789;SDS011;378;48.844;9.156;2023-02-28T06:15:29;11.03;;;5.50;;
789;SDS011;378;48.844;9.156;2023-02-28T06:17:56;11.03;;;5.47;;
789;SDS011;378;48.844;9.156;2023-02-28T06:20:25;11.93;;;5.13;;
789;SDS011;378;48.844;9.156;2023-02-28T06:22:54;12.50;;;5.80;;
789;SDS011;378;48.844;9.156;2023-02-28T06:25:23;6.87;;;4.60;;
789;SDS011;378;48.844;9.156;2023-02-28T06:27:50;10.33;;;4.93;;
789;SDS011;378;48.844;9.156;2023-02-28T06:30:17;11.93;;;5.17;;
789;SDS011;378;48.844;9.156;2023-02-28T06:32:48;12.77;;;5.07;;
789;SDS011;378;48.844;9.156;2023-02-28T06:35:15;9.07;;;5.70;;
789;SDS011;378;48.844;9.156;2023-02-28T06:37:44;10.03;;;5.07;;
789;SDS011;378;48.844;9.156;2023-02-28T06:40:14;14.33;;;5.70;;
789;SDS011;378;48.844;9.156;2023-02-28T06:42:42;9.77;;;4.70;;
789;SDS011;378;48.844;9.156;2023-02-28T06:45:13;11.07;;;4.97;;
789;SDS011;378;48.844;9.156;2023-02-28T06:47:40;11.90;;;5.00;;
789;SDS011;378;48.844;9.156;2023-02-28T06:50:09;9.50;;;5.13;;
789;SDS011;378;48.844;9.156;2023-02-28T06:52:37;12.87;;;5.67;;
789;SDS011;378;48.844;9.156;2023-02-28T06:55:07;8.97;;;5.03;;
789;SDS011;378;48.844;9.156;2023-02-28T06:57:35;9.03;;;5.20;;
789;SDS011;378;48.844;9.156;2023-02-28T07:00:03;9.40;;;5.50;;
789;SDS011;378;48.844;9.156;2023-02-28T07:02:33;13.30;;;5.67;;
789;SDS011;378;48.844;9.156;2023-02-28T07:05:00;11.07;;;5.30;;
789;SDS011;378;48.844;9.156;2023-02-28T07:07:27;13.17;;;5.83;;
789;SDS011;378;48.844;9.156;2023-02-28T07:09:54;13.23;;;5.87;;
789;SDS011;378;48.844;9.156;2023-02-28T07:12:22;12.00;;;5.30;;
789;SDS011;378;48.844;9.156;2023-02-28T07:17:17;11.33;;;5.63;;
789;SDS011;378;48.844;9.156;2023-02-28T07:19:44;10.43;;;5.20;;
789;SDS011;378;48.844;9.156;2023-02-28T07:22:11;11.13;;;5.63;;
789;SDS011;378;48.844;9.156;2023-02-28T07:24:37;12.93;;;4.97;;
789;SDS011;378;48.844;9.156;2023-02-28T07:27:04;12.97;;;5.67;;
789;SDS011;378;48.844;9.156;2023-02-28T07:29:33;7.20;;;4.80;;
789;SDS011;378;48.844;9.156;2023-02-28T07:31:59;10.57;;;5.13;;
789;SDS011;378;48.844;9.156;2023-02-28T07:34:26;10.23;;;5.23;;
789;SDS011;378;48.844;9.156;2023-02-28T07:36:53;13.77;;;5.50;;
789;SDS011;378;48.844;9.156;2023-02-28T07:39:21;10.67;;;5.37;;
789;SDS011;378;48.844;9.156;2023-02-28T07:41:48;10.17;;;5.17;;
789;SDS011;378;48.844;9.156;2023-02-28T07:44:29;10.23;;;5.80;;
789;SDS011;378;48.844;9.156;2023-02-28T07:46:57;11.27;;;5.40;;
789;SDS011;378;48.844;9.156;2023-02-28T07:49:24;11.07;;;5.50;;
789;SDS011;378;48.844;9.156;2023-02-28T07:51:50;10.97;;;6.00;;
789;SDS011;378;48.844;9.156;2023-02-28T07:54:17;13.07;;;5.23;;
789;SDS011;378;48.844;9.156;2023-02-28T07:56:44;11.33;;;5.63;;
789;SDS011;378;48.844;9.156;2023-02-28T07:59:11;12.07;;;5.77;;
789;SDS011;378;48.844;9.156;2023-02-28T08:01:38;12.35;;;6.35;;
789;SDS011;378;48.844;9.156;2023-02-28T08:04:06;9.43;;;5.57;;
789;SDS011;378;48.844;9.156;2023-02-28T08:06:33;11.07;;;5.83;;
789;SDS011;378;48.844;9.156;2023-02-28T08:09:00;10.83;;;5.13;;
789;SDS011;378;48.844;9.156;2023-02-28T08:11:27;16.97;;;5.70;;
789;SDS011;378;48.844;9.156;2023-02-28T08:13:54;14.93;;;5.97;;
789;SDS011;378;48.844;9.156;2023-02-28T08:16:21;16.83;;;7.43;;
789;SDS011;378;48.844;9.156;2023-02-28T08:18:48;12.53;;;6.10;;
789;SDS011;378;48.844;9.156;2023-02-28T08:21:17;12.67;;;5.97;;
789;SDS011;378;48.844;9.156;2023-02-28T08:23:45;14.60;;;5.80;;
789;SDS011;378;48.844;9.156;2023-02-28T08:26:13;10.90;;;5.87;;
789;SDS011;378;48.844;9.156;2023-02-28T08:28:39;14.43;;;6.07;;
789;SDS011;378;48.844;9.156;2023-02-28T08:31:07;13.47;;;6.67;;
789;SDS011;378;48.844;9.156;2023-02-28T08:33:35;12.43;;;6.90;;
789;SDS011;378;48.844;9.156;2023-02-28T08:36:04;12.30;;;6.50;;
789;SDS011;378;48.844;9.156;2023-02-28T08:38:33;13.47;;;6.33;;
789;SDS011;378;48.844;9.156;2023-02-28T08:41:01;13.53;;;6.57;;
789;SDS011;378;48.844;9.156;2023-02-28T08:43:30;12.27;;;6.23;;
789;SDS011;378;48.844;9.156;2023-02-28T08:45:57;14.40;;;7.27;;
789;SDS011;378;48.844;9.156;2023-02-28T08:48:25;12.63;;;6.20;;
789;SDS011;378;48.844;9.156;2023-02-28T08:50:56;15.73;;;6.50;;
789;SDS011;378;48.844;9.156;2023-02-28T08:53:23;12.63;;;6.57;;
789;SDS011;378;48.844;9.156;2023-02-28T08:55:58;13.20;;;6.43;;
789;SDS011;378;48.844;9.156;2023-02-28T08:58:26;14.50;;;6.07;;
789;SDS011;378;48.844;9.156;2023-02-28T09:00:53;13.40;;;6.60;;
789;SDS011;378;48.844;9.156;2023-02-28T09:03:21;14.80;;;6.90;;
789;SDS011;378;48.844;9.156;2023-02-28T09:05:51;15.77;;;7.95;;
789;SDS011;378;48.844;9.156;2023-02-28T09:08:19;13.67;;;6.90;;
789;SDS011;378;48.844;9.156;2023-02-28T09:10:46;17.70;;;7.90;;
789;SDS011;378;48.844;9.156;2023-02-28T09:13:14;17.77;;;6.90;;
789;SDS011;378;48.844;9.156;2023-02-28T09:15:41;18.13;;;7.50;;
789;SDS011;378;48.844;9.156;2023-02-28T09:18:08;16.83;;;8.68;;
789;SDS011;378;48.844;9.156;2023-02-28T09:20:37;14.23;;;6.60;;
789;SDS011;378;48.844;9.156;2023-02-28T09:23:04;14.43;;;6.87;;
789;SDS011;378;48.844;9.156;2023-02-28T09:25:31;13.87;;;6.43;;
789;SDS011;378;48.844;9.156;2023-02-28T09:27:58;14.13;;;6.50;;
789;SDS011;378;48.844;9.156;2023-02-28T09:30:26;16.90;;;7.27;;
789;SDS011;378;48.844;9.156;2023-02-28T09:32:54;11.57;;;6.03;;
789;SDS011;378;48.844;9.156;2023-02-28T09:35:21;19.60;;;6.77;;
789;SDS011;378;48.844;9.156;2023-02-28T09:37:49;12.40;;;6.03;;
789;SDS011;378;48.844;9.156;2023-02-28T09:40:17;13.40;;;6.67;;
789;SDS011;378;48.844;9.156;2023-02-28T09:42:46;12.47;;;6.87;;
789;SDS011;378;48.844;9.156;2023-02-28T09:45:18;12.57;;;6.37;;
789;SDS011;378;48.844;9.156;2023-02-28T09:47:50;15.50;;;6.20;;
789;SDS011;378;48.844;9.156;2023-02-28T09:50:22;17.05;;;7.38;;
789;SDS011;378;48.844;9.156;2023-02-28T09:52:57;13.13;;;6.73;;
789;SDS011;378;48.844;9.156;2023-02-28T09:55:28;10.73;;;6.07;;
789;SDS011;378;48.844;9.156;2023-02-28T09:57:58;14.73;;;6.83;;
789;SDS011;378;48.844;9.156;2023-02-28T10:00:28;13.00;;;6.73;;
789;SDS011;378;48.844;9.156;2023-02-28T10:03:05;12.43;;;6.00;;
789;SDS011;378;48.844;9.156;2023-02-28T10:05:52;11.90;;;6.80;;
789;SDS011;378;48.844;9.156;2023-02-28T10:08:23;10.50;;;6.30;;
789;SDS011;378;48.844;9.156;2023-02-28T10:10:54;13.43;;;6.77;;
789;SDS011;378;48.844;9.156;2023-02-28T10:13:24;14.93;;;8.15;;
789;SDS011;378;48.844;9.156;2023-02-28T10:15:56;12.03;;;6.73;;
789;SDS011;378;48.844;9.156;2023-02-28T10:18:30;13.63;;;7.30;;
789;SDS011;378;48.844;9.156;2023-02-28T10:21:04;15.57;;;7.40;;
789;SDS011;378;48.844;9.156;2023-02-28T10:23:34;15.33;;;6.73;;
789;SDS011;378;48.844;9.156;2023-02-28T10:26:05;12.37;;;7.00;;
789;SDS011;378;48.844;9.156;2023-02-28T10:28:37;13.20;;;6.93;;
789;SDS011;378;48.844;9.156;2023-02-28T10:31:05;14.63;;;6.50;;
789;SDS011;378;48.844;9.156;2023-02-28T10:33:39;16.07;;;6.50;;
789;SDS011;378;48.844;9.156;2023-02-28T10:36:06;14.00;;;6.87;;
789;SDS011;378;48.844;9.156;2023-02-28T10:38:37;13.03;;;7.50;;
789;SDS011;378;48.844;9.156;2023-02-28T10:41:06;14.33;;;7.47;;
789;SDS011;378;48.844;9.156;2023-02-28T10:43:34;14.47;;;7.23;;
789;SDS011;378;48.844;9.156;2023-02-28T10:46:03;15.13;;;7.37;;
789;SDS011;378;48.844;9.156;2023-02-28T10:48:39;11.90;;;6.30;;
789;SDS011;378;48.844;9.156;2023-02-28T10:51:09;25.90;;;7.23;;
789;SDS011;378;48.844;9.156;2023-02-28T10:53:39;15.13;;;6.57;;
789;SDS011;378;48.844;9.156;2023-02-28T10:56:15;13.30;;;6.63;;
789;SDS011;378;48.844;9.156;2023-02-28T10:58:49;15.03;;;7.67;;
789;SDS011;378;48.844;9.156;2023-02-28T11:01:20;18.47;;;7.37;;
789;SDS011;378;48.844;9.156;2023-02-28T11:03:50;14.33;;;7.13;;
789;SDS011;378;48.844;9.156;2023-02-28T11:06:18;11.90;;;7.13;;
789;SDS011;378;48.844;9.156;2023-02-28T11:08:48;10.70;;;6.50;;
789;SDS011;378;48.844;9.156;2023-02-28T11:11:17;14.17;;;7.20;;
789;SDS011;378;48.844;9.156;2023-02-28T11:13:45;13.68;;;7.55;;
789;SDS011;378;48.844;9.156;2023-02-28T11:16:15;11.13;;;6.47;;
789;SDS011;378;48.844;9.156;2023-02-28T11:18:43;15.38;;;6.80;;
789;SDS011;378;48.844;9.156;2023-02-28T11:21:18;14.32;;;7.03;;
789;SDS011;378;48.844;9.156;2023-02-28T11:23:48;14.80;;;7.30;;
789;SDS011;378;48.844;9.156;2023-02-28T11:29:08;15.25;;;7.90;;
789;SDS011;378;48.844;9.156;2023-02-28T11:31:37;20.00;;;7.40;;
789;SDS011;378;48.844;9.156;2023-02-28T11:34:20;21.25;;;8.95;;
789;SDS011;378;48.844;9.156;2023-02-28T11:36:52;19.10;;;8.32;;
789;SDS011;378;48.844;9.156;2023-02-28T11:39:22;18.20;;;8.37;;
789;SDS011;378;48.844;9.156;2023-02-28T11:42:02;18.92;;;8.02;;
789;SDS011;378;48.844;9.156;2023-02-28T11:44:43;13.13;;;7.60;;
789;SDS011;378;48.844;9.156;2023-02-28T11:47:25;18.65;;;8.13;;
789;SDS011;378;48.844;9.156;2023-02-28T11:50:04;13.57;;;7.57;;
789;SDS011;378;48.844;9.156;2023-02-28T11:52:45;17.23;;;7.63;;
789;SDS011;378;48.844;9.156;2023-02-28T11:55:18;13.20;;;7.28;;
789;SDS011;378;48.844;9.156;2023-02-28T11:57:56;13.25;;;7.45;;
789;SDS011;378;48.844;9.156;2023-02-28T12:00:39;14.15;;;7.60;;
789;SDS011;378;48.844;9.156;2023-02-28T12:03:16;17.38;;;8.05;;
789;SDS011;378;48.844;9.156;2023-02-28T12:05:54;13.52;;;7.07;;
789;SDS011;378;48.844;9.156;2023-02-28T12:08:33;15.85;;;7.28;;
789;SDS011;378;48.844;9.156;2023-02-28T12:11:14;13.77;;;7.13;;
789;SDS011;378;48.844;9.156;2023-02-28T12:13:55;14.90;;;7.55;;
789;SDS011;378;48.844;9.156;2023-02-28T12:16:37;12.88;;;7.15;;
789;SDS011;378;48.844;9.156;2023-02-28T12:19:17;13.65;;;7.90;;
789;SDS011;378;48.844;9.156;2023-02-28T12:21:50;11.88;;;6.65;;
789;SDS011;378;48.844;9.156;2023-02-28T12:24:42;14.32;;;7.35;;
789;SDS011;378;48.844;9.156;2023-02-28T12:27:25;13.65;;;7.72;;
789;SDS011;378;48.844;9.156;2023-02-28T12:29:56;13.48;;;6.70;;
789;SDS011;378;48.844;9.156;2023-02-28T12:32:27;13.13;;;6.80;;
789;SDS011;378;48.844;9.156;2023-02-28T12:35:00;10.15;;;6.57;;
789;SDS011;378;48.844;9.156;2023-02-28T12:37:29;19.30;;;9.20;;
789;SDS011;378;48.844;9.156;2023-02-28T12:40:05;14.07;;;6.93;;
789;SDS011;378;48.844;9.156;2023-02-28T12:42:39;15.30;;;8.05;;
789;SDS011;378;48.844;9.156;2023-02-28T12:45:10;18.80;;;7.78;;
789;SDS011;378;48.844;9.156;2023-02-28T12:47:43;14.85;;;6.97;;
789;SDS011;378;48.844;9.156;2023-02-28T12:50:13;12.30;;;6.30;;
789;SDS011;378;48.844;9.156;2023-02-28T12:52:41;10.05;;;5.68;;
789;SDS011;378;48.844;9.156;2023-02-28T12:55:21;11.35;;;6.93;;
789;SDS011;378;48.844;9.156;2023-02-28T12:57:55;17.27;;;8.18;;
789;SDS011;378;48.844;9.156;2023-02-28T13:00:29;17.55;;;6.18;;
789;SDS011;378;48.844;9.156;2023-02-28T13:03:15;12.35;;;6.93;;
789;SDS011;378;48.844;9.156;2023-02-28T13:06:01;12.05;;;6.63;;
789;SDS011;378;48.844;9.156;2023-02-28T13:08:56;13.73;;;7.05;;
789;SDS011;378;48.844;9.156;2023-02-28T13:11:29;8.00;;;6.18;;
789;SDS011;378;48.844;9.156;2023-02-28T13:13:59;12.40;;;6.63;;
789;SDS011;378;48.844;9.156;2023-02-28T13:16:27;9.80;;;6.30;;
789;SDS011;378;48.844;9.156;2023-02-28T13:19:15;14.52;;;6.28;;
789;SDS011;378;48.844;9.156;2023-02-28T13:21:46;11.40;;;6.70;;
789;SDS011;378;48.844;9.156;2023-02-28T13:27:19;11.13;;;6.43;;
789;SDS011;378;48.844;9.156;2023-02-28T13:29:57;11.57;;;6.20;;
789;SDS011;378;48.844;9.156;2023-02-28T13:38:16;9.85;;;5.50;;
789;SDS011;378;48.844;9.156;2023-02-28T13:44:07;9.73;;;6.30;;
789;SDS011;378;48.844;9.156;2023-02-28T13:46:35;10.32;;;6.05;;
789;SDS011;378;48.844;9.156;2023-02-28T13:49:25;10.32;;;6.18;;
789;SDS011;378;48.844;9.156;2023-02-28T13:51:53;10.82;;;6.63;;
789;SDS011;378;48.844;9.156;2023-02-28T13:54:31;13.50;;;6.97;;
789;SDS011;378;48.844;9.156;2023-02-28T13:57:12;10.20;;;6.47;;
789;SDS011;378;48.844;9.156;2023-02-28T13:59:52;13.88;;;6.82;;
789;SDS011;378;48.844;9.156;2023-02-28T14:02:50;13.18;;;6.78;;
789;SDS011;378;48.844;9.156;2023-02-28T14:05:32;12.02;;;6.25;;
789;SDS011;378;48.844;9.156;2023-02-28T14:08:04;14.23;;;6.95;;
789;SDS011;378;48.844;9.156;2023-02-28T14:10:33;13.30;;;6.30;;
789;SDS011;378;48.844;9.156;2023-02-28T14:13:11;11.93;;;6.82;;
789;SDS011;378;48.844;9.156;2023-02-28T14:15:46;11.75;;;6.95;;
789;SDS011;378;48.844;9.156;2023-02-28T14:18:17;10.95;;;6.20;;
789;SDS011;378;48.844;9.156;2023-02-28T14:20:49;11.55;;;6.32;;
789;SDS011;378;48.844;9.156;2023-02-28T14:23:24;11.25;;;6.72;;
789;SDS011;378;48.844;9.156;2023-02-28T14:26:01;11.43;;;6.13;;
789;SDS011;378;48.844;9.156;2023-02-28T14:28:39;12.05;;;6.80;;
789;SDS011;378;48.844;9.156;2023-02-28T14:31:18;11.60;;;6.47;;
789;SDS011;378;48.844;9.156;2023-02-28T14:34:04;12.60;;;6.70;;
789;SDS011;378;48.844;9.156;2023-02-28T14:36:43;13.90;;;6.78;;
789;SDS011;378;48.844;9.156;2023-02-28T14:39:12;12.65;;;6.88;;
789;SDS011;378;48.844;9.156;2023-02-28T14:41:42;11.43;;;7.10;;
789;SDS011;378;48.844;9.156;2023-02-28T14:44:14;13.20;;;7.10;;
789;SDS011;378;48.844;9.156;2023-02-28T14:46:44;16.48;;;6.88;;
789;SDS011;378;48.844;9.156;2023-02-28T14:49:16;10.98;;;6.57;;
789;SDS011;378;48.844;9.156;2023-02-28T14:51:45;14.55;;;7.70;;
789;SDS011;378;48.844;9.156;2023-02-28T14:54:14;17.25;;;7.70;;
789;SDS011;378;48.844;9.156;2023-02-28T14:56:42;13.48;;;6.70;;
789;SDS011;378;48.844;9.156;2023-02-28T15:05:00;13.00;;;7.05;;
789;SDS011;378;48.844;9.156;2023-02-28T15:07:47;17.58;;;7.15;;
789;SDS011;378;48.844;9.156;2023-02-28T15:10:19;10.80;;;7.32;;
789;SDS011;378;48.844;9.156;2023-02-28T15:12:49;14.43;;;6.65;;
789;SDS011;378;48.844;9.156;2023-02-28T15:15:19;11.95;;;6.88;;
789;SDS011;378;48.844;9.156;2023-02-28T15:17:50;12.32;;;7.13;;
789;SDS011;378;48.844;9.156;2023-02-28T15:20:21;14.13;;;7.32;;
789;SDS011;378;48.844;9.156;2023-02-28T15:22:49;12.15;;;6.78;;
789;SDS011;378;48.844;9.156;2023-02-28T15:25:19;12.85;;;6.78;;
789;SDS011;378;48.844;9.156;2023-02-28T15:27:48;12.48;;;6.95;;
789;SDS011;378;48.844;9.156;2023-02-28T15:30:17;15.52;;;7.75;;
789;SDS011;378;48.844;9.156;2023-02-28T15:32:45;17.55;;;8.13;;
789;SDS011;378;48.844;9.156;2023-02-28T15:35:33;12.43;;;7.05;;
789;SDS011;378;48.844;9.156;2023-02-28T15:38:01;12.32;;;6.95;;
789;SDS011;378;48.844;9.156;2023-02-28T15:40:36;12.32;;;7.03;;
789;SDS011;378;48.844;9.156;2023-02-28T15:43:04;10.88;;;7.43;;
789;SDS011;378;48.844;9.156;2023-02-28T15:45:35;14.00;;;7.63;;
789;SDS011;378;48.844;9.156;2023-02-28T15:48:10;17.27;;;7.03;;
789;SDS011;378;48.844;9.156;2023-02-28T15:50:41;15.18;;;7.25;;
789;SDS011;378;48.844;9.156;2023-02-28T15:53:12;13.85;;;7.57;;
789;SDS011;378;48.844;9.156;2023-02-28T15:55:40;14.20;;;7.78;;
789;SDS011;378;48.844;9.156;2023-02-28T15:58:08;17.75;;;7.95;;
789;SDS011;378;48.844;9.156;2023-02-28T16:00:38;13.93;;;7.50;;
789;SDS011;378;48.844;9.156;2023-02-28T16:06:09;14.10;;;7.38;;
789;SDS011;378;48.844;9.156;2023-02-28T16:08:48;13.93;;;7.05;;
789;SDS011;378;48.844;9.156;2023-02-28T16:11:16;16.42;;;7.28;;
789;SDS011;378;48.844;9.156;2023-02-28T16:13:43;12.23;;;7.10;;
789;SDS011;378;48.844;9.156;2023-02-28T16:16:14;9.98;;;6.55;;
789;SDS011;378;48.844;9.156;2023-02-28T16:18:43;14.68;;;7.03;;
789;SDS011;378;48.844;9.156;2023-02-28T16:21:10;11.82;;;6.85;;
789;SDS011;378;48.844;9.156;2023-02-28T16:23:36;17.02;;;7.88;;
789;SDS011;378;48.844;9.156;2023-02-28T16:26:04;15.02;;;6.85;;
789;SDS011;378;48.844;9.156;2023-02-28T16:28:32;11.63;;;7.10;;
789;SDS011;378;48.844;9.156;2023-02-28T16:31:04;12.32;;;7.20;;
789;SDS011;378;48.844;9.156;2023-02-28T16:33:32;11.75;;;7.55;;
789;SDS011;378;48.844;9.156;2023-02-28T16:36:01;18.58;;;7.78;;
789;SDS011;378;48.844;9.156;2023-02-28T16:38:28;13.93;;;7.53;;